createdAt,value
2023-01-17T00:07:52.644Z,16.66
2023-01-17T00:17:59.840Z,16.66
2023-01-17T00:28:06.958Z,16.68
2023-01-17T00:38:13.772Z,16.68
2023-01-17T00:48:20.948Z,16.66
2023-01-17T00:58:28.045Z,16.66
2023-01-17T01:08:35.290Z,16.68
2023-01-17T01:18:42.250Z,16.68
2023-01-17T01:28:49.442Z,16.68
2023-01-17T01:38:56.254Z,16.68
2023-01-17T01:49:03.329Z,16.69
2023-01-17T01:59:10.413Z,16.66
2023-01-17T02:09:17.411Z,16.66
2023-01-17T02:19:24.337Z,16.69
2023-01-17T02:29:31.267Z,16.68
2023-01-17T02:39:38.329Z,16.70
2023-01-17T02:49:45.474Z,16.68
2023-01-17T02:59:52.397Z,16.69
2023-01-17T03:09:59.434Z,16.70
2023-01-17T03:20:06.538Z,16.70
2023-01-17T03:30:14.171Z,16.73
2023-01-17T03:40:20.746Z,16.73
2023-01-17T03:50:28.069Z,16.70
2023-01-17T04:00:35.056Z,16.66
2023-01-17T04:10:42.198Z,16.66
2023-01-17T04:20:49.248Z,16.69
2023-01-17T04:30:56.345Z,16.71
2023-01-17T04:41:03.498Z,16.71
2023-01-17T04:51:10.230Z,16.68
2023-01-17T05:01:17.505Z,16.68
2023-01-17T05:11:25.267Z,16.71
2023-01-17T05:21:32.121Z,16.71
2023-01-17T05:31:39.091Z,16.73
2023-01-17T05:41:46.211Z,16.73
2023-01-17T05:51:54.939Z,16.69
2023-01-17T06:02:02.867Z,16.75
2023-01-17T06:12:10.187Z,16.75
2023-01-17T06:22:17.523Z,16.69
2023-01-17T06:32:24.504Z,16.69
2023-01-17T06:42:31.409Z,16.66
2023-01-17T06:52:38.582Z,16.66
2023-01-17T07:02:46.750Z,16.66
2023-01-17T07:12:53.508Z,16.56
2023-01-17T07:23:01.219Z,16.64
2023-01-17T07:33:09.000Z,16.64
2023-01-17T07:43:15.597Z,16.64
2023-01-17T07:53:22.811Z,16.66
2023-01-17T08:03:29.774Z,16.66
2023-01-17T08:13:37.106Z,16.63
2023-01-17T08:23:44.014Z,16.63
2023-01-17T08:33:51.138Z,16.54
2023-01-17T08:43:57.279Z,15.50
2023-01-17T08:54:05.301Z,14.90
2023-01-17T09:04:12.331Z,15.02
2023-01-17T09:14:19.102Z,15.20
2023-01-17T09:24:26.306Z,15.44
2023-01-17T09:34:33.477Z,15.60
2023-01-17T09:44:41.135Z,15.71
2023-01-17T09:54:48.032Z,15.84
2023-01-17T10:04:55.408Z,15.98
2023-01-17T10:15:02.513Z,16.07
2023-01-17T10:25:09.440Z,16.13
2023-01-17T10:35:16.482Z,16.20
2023-01-17T10:45:23.869Z,16.34
2023-01-17T10:55:31.535Z,16.34
2023-01-17T11:05:38.624Z,16.42
2023-01-17T11:15:45.449Z,16.47
2023-01-17T11:25:52.677Z,16.42
2023-01-17T11:36:00.116Z,16.42
2023-01-17T11:46:07.122Z,16.54
2023-01-17T11:56:14.597Z,16.59
2023-01-17T12:06:21.805Z,16.75
2023-01-17T12:16:29.236Z,16.81
2023-01-17T12:26:36.270Z,16.18
2023-01-17T12:36:42.897Z,16.18
2023-01-17T12:46:50.209Z,16.20
2023-01-17T12:56:59.956Z,16.28
2023-01-17T13:07:06.988Z,16.52
2023-01-17T13:17:14.364Z,16.61
2023-01-17T13:27:21.590Z,16.81
2023-01-17T13:37:29.166Z,16.81
2023-01-17T13:47:35.121Z,16.90
2023-01-17T13:57:42.337Z,16.92
2023-01-17T14:07:49.522Z,16.97
2023-01-17T14:17:56.749Z,16.98
2023-01-17T14:28:03.500Z,17.09
2023-01-17T14:38:10.619Z,17.14
2023-01-17T14:48:17.538Z,17.14
2023-01-17T14:58:24.978Z,17.16
2023-01-17T15:08:31.951Z,17.19
2023-01-17T15:18:38.465Z,17.19
2023-01-17T15:28:46.059Z,17.23
2023-01-17T15:38:52.675Z,17.26
2023-01-17T15:48:58.723Z,17.28
2023-01-17T15:59:05.070Z,17.25
2023-01-17T16:09:11.965Z,17.16
2023-01-17T16:19:19.347Z,17.16
2023-01-17T16:29:26.167Z,17.04
2023-01-17T16:39:33.383Z,17.02
2023-01-17T16:49:40.380Z,16.99
2023-01-17T16:59:50.867Z,16.99
2023-01-17T17:09:58.776Z,16.98
2023-01-17T17:20:05.322Z,16.98
2023-01-17T17:30:12.335Z,17.00
2023-01-17T17:40:19.411Z,16.98
2023-01-17T17:50:25.718Z,16.97
2023-01-17T18:00:32.708Z,16.97
2023-01-17T18:10:39.713Z,16.95
2023-01-17T18:20:46.574Z,16.92
2023-01-17T18:30:53.397Z,16.88
2023-01-17T18:41:00.635Z,16.88
2023-01-17T18:51:07.519Z,16.81
2023-01-17T19:01:14.637Z,16.80
2023-01-17T19:11:21.550Z,16.78
2023-01-17T19:21:27.865Z,16.78
2023-01-17T19:31:34.990Z,16.77
2023-01-17T19:41:41.937Z,16.79
2023-01-17T19:51:48.861Z,16.78
2023-01-17T20:01:56.308Z,16.77
2023-01-17T20:12:03.478Z,16.81
2023-01-17T20:22:10.031Z,16.81
2023-01-17T20:32:17.053Z,16.79
2023-01-17T20:42:24.585Z,16.79
2023-01-17T20:52:31.157Z,16.79
2023-01-17T21:02:38.605Z,16.78
2023-01-17T21:12:46.175Z,16.79
2023-01-17T21:22:53.503Z,16.78
2023-01-17T21:33:00.462Z,16.79
2023-01-17T21:43:07.703Z,16.79
2023-01-17T21:53:14.470Z,16.79
2023-01-17T22:03:21.297Z,16.79
2023-01-17T22:13:28.570Z,16.78
2023-01-17T22:23:35.647Z,16.78
2023-01-17T22:33:42.490Z,16.81
2023-01-17T22:43:49.974Z,16.78
2023-01-17T22:53:58.043Z,16.78
2023-01-17T23:04:04.867Z,16.80
2023-01-17T23:14:12.208Z,16.80
2023-01-17T23:24:19.400Z,16.78
2023-01-17T23:34:25.984Z,16.78
2023-01-17T23:44:32.873Z,16.79
2023-01-17T23:54:40.166Z,16.81
